Latest Weather Observations for Mount Gambier

IDS60801

Issued at 9:31 pm CST Sunday 28 May 2017 (issued every 30 minutes, with the page automatically refreshed every 10 minutes)

About weather observations | Map of weather stations | Latest weather observations for SA | Other Formats
Station Details ID: 026021 Name: MOUNT GAMBIER AERO Lat: -37.75 Lon: 140.77 Height: 63.0 m
Data from the previous 72 hours. | See also: Recent months at Mount Gambier
Date/Time
CST
Temp
°C
App
Temp
°C
Dew
Point
°C
Rel
Hum
%
Delta-T
°C
Wind Press
QNH
hPa
Press
MSL
hPa
Rain since
9am
mm
Dir  Spd
km/h
Gust
km/h
Spd
kts
Gust
kts
28/09:30pm 5.0 2.4 4.0 93 0.4 NW 7 11 4 6 1016.4 1016.4 5.2
28/09:00pm 5.7 4.4 4.2 90 0.6 CALM 0 0 0 0 1016.2 1016.2 5.2
28/08:30pm 6.8 4.0 5.0 88 0.8 W 9 13 5 7 1015.8 1015.8 5.2
28/08:00pm 6.1 2.0 4.3 88 0.8 NW 15 17 8 9 1015.5 1015.5 4.4
28/07:30pm 6.2 2.3 5.2 93 0.4 NW 15 17 8 9 1015.1 1015.1 4.4
28/07:00pm 5.8 2.8 4.1 89 0.7 WNW 9 11 5 6 1014.7 1014.7 4.4
28/06:30pm 6.0 2.7 4.5 90 0.6 NW 11 13 6 7 1014.2 1014.2 4.4
28/06:00pm 7.4 4.5 4.7 83 1.2 WSW 9 13 5 7 1013.7 1013.7 4.4
28/05:30pm 7.3 3.7 5.1 86 1.0 W 13 15 7 8 1013.0 1013.0 4.4
28/05:00pm 7.8 4.3 5.3 84 1.1 W 13 17 7 9 1012.8 1012.8 4.4
28/04:30pm 8.7 4.1 5.4 80 1.5 WSW 19 28 10 15 1012.3 1012.3 4.4
28/04:00pm 10.2 5.9 6.9 80 1.6 WSW 19 30 10 16 1012.0 1012.0 4.2
28/03:30pm 10.1 5.1 4.5 68 2.5 WSW 20 28 11 15 1011.4 1011.4 3.8
28/03:00pm 10.2 4.3 5.6 73 2.1 SW 26 35 14 19 1011.0 1011.0 3.8
28/02:30pm 10.0 3.9 6.7 80 1.6 SW 28 39 15 21 1010.5 1010.6 3.8
28/02:14pm 10.8 3.4 6.9 77 1.9 WSW 35 56 19 30 1010.3 1010.4 3.0
28/02:00pm 11.9 5.8 6.4 69 2.6 WSW 28 37 15 20 1010.2 1010.3 2.8
28/01:30pm 10.3 4.8 6.1 75 2.0 W 24 32 13 17 1010.0 1010.1 2.8
28/01:00pm 10.8 3.7 5.3 69 2.5 WSW 32 43 17 23 1010.0 1010.1 2.8
28/12:30pm 11.0 5.6 6.2 72 2.3 W 24 33 13 18 1009.8 1009.9 2.8
28/12:00pm 9.4 3.6 6.3 81 1.4 W 26 39 14 21 1010.0 1010.1 2.8
28/11:50am 9.5 3.2 5.5 76 1.8 WNW 28 41 15 22 1010.1 1010.2 2.8
28/11:30am 9.9 6.0 7.2 83 1.3 WNW 17 22 9 12 1010.1 1010.2 2.8
28/11:00am 10.1 6.7 7.5 84 1.2 WNW 15 19 8 10 1010.0 1010.1 2.8
28/10:30am 9.7 6.5 8.6 93 0.5 W 15 19 8 10 1010.0 1010.1 2.8
28/10:25am 9.2 5.6 8.3 94 0.4 WSW 17 26 9 14 1010.1 1010.2 2.8
28/10:03am 8.4 4.3 6.4 87 0.9 W 17 32 9 17 1010.4 1010.5 2.2
28/10:00am 9.0 6.0 7.5 90 0.7 W 13 20 7 11 1010.3 1010.4 1.4
28/09:30am 8.2 4.6 6.7 90 0.7 SW 15 30 8 16 1009.6 1009.7 0.6
28/09:13am 8.6 4.2 6.7 88 0.9 WNW 19 39 10 21 1009.7 1009.8 0.0
28/09:00am 8.5 5.5 7.7 95 0.4 NNW 13 15 7 8 1009.2 1009.3 14.6
28/08:30am 8.2 5.9 7.4 95 0.4 WNW 9 13 5 7 1008.9 1009.0 14.6
28/08:00am 7.8 1.1 5.8 87 0.9 W 30 50 16 27 1008.9 1009.0 14.4
28/07:56am 7.8 2.8 6.3 90 0.7 W 22 48 12 26 1009.2 1009.3 14.0
28/07:30am 7.2 3.5 6.3 94 0.4 NW 15 17 8 9 1008.3 1008.4 13.6
28/07:00am 6.7 3.0 6.3 97 0.2 NW 15 24 8 13 1008.3 1008.4 13.6
28/06:30am 6.5 2.7 5.9 96 0.3 NNW 15 20 8 11 1008.1 1008.2 13.6
28/06:00am 6.6 2.4 5.9 95 0.3 NNW 17 22 9 12 1008.0 1008.1 13.6
28/05:30am 7.2 3.2 6.5 95 0.3 N 17 24 9 13 1008.0 1008.1 13.6
28/05:10am 7.4 3.6 5.7 89 0.8 WNW 15 19 8 10 1007.9 1008.0 13.6
28/05:00am 7.8 2.4 6.3 90 0.7 W 24 35 13 19 1008.0 1008.1 13.6
28/04:52am 7.8 3.7 6.3 90 0.7 W 17 35 9 19 1008.2 1008.3 13.2
28/04:30am 7.2 3.8 6.1 93 0.5 NW 13 15 7 8 1007.9 1008.0 11.2
28/04:08am 7.8 3.7 6.4 91 0.6 WNW 17 24 9 13 1007.7 1007.8 11.2
28/04:00am 8.0 4.0 6.6 91 0.6 W 17 28 9 15 1008.0 1008.1 11.2
28/03:51am 7.9 2.6 6.8 93 0.5 WNW 24 41 13 22 1008.1 1008.2 11.0
28/03:30am 8.0 3.6 7.4 96 0.3 NNW 20 28 11 15 1007.7 1007.8 9.8
28/03:00am 8.0 4.9 7.4 96 0.3 NW 13 17 7 9 1008.1 1008.2 9.4
28/02:30am 8.3 4.9 7.5 95 0.4 NW 15 19 8 10 1008.2 1008.3 9.2
28/02:00am 8.5 4.7 7.4 93 0.5 NW 17 20 9 11 1008.3 1008.4 8.2
28/01:30am 8.3 4.0 7.1 92 0.6 NW 19 24 10 13 1008.1 1008.2 7.8
28/01:00am 7.6 4.4 6.7 94 0.4 NW 13 15 7 8 1008.0 1008.1 7.4
28/12:30am 8.6 5.5 7.4 92 0.6 NW 13 17 7 9 1008.1 1008.2 7.4
28/12:00am 8.5 5.6 8.1 97 0.2 NNW 13 17 7 9 1008.4 1008.5 7.4
 
Date/Time
CST
Temp
°C
App
Temp
°C
Dew
Point
°C
Rel
Hum
%
Delta-T
°C
Wind Press
QNH
hPa
Press
MSL
hPa
Rain since
9am
mm
Dir  Spd
km/h
Gust
km/h
Spd
kts
Gust
kts
27/11:30pm 8.8 6.3 8.4 97 0.2 NW 11 13 6 7 1008.4 1008.5 7.4
27/11:00pm 9.0 6.5 8.4 96 0.3 NNW 11 13 6 7 1008.4 1008.5 7.4
27/10:30pm 9.7 7.0 8.8 94 0.4 WNW 13 15 7 8 1008.5 1008.6 7.4
27/10:00pm 10.3 7.3 9.4 94 0.5 WNW 15 26 8 14 1008.7 1008.8 7.4
27/09:30pm 10.6 8.1 9.8 95 0.4 WNW 13 19 7 10 1008.6 1008.7 7.0
27/09:18pm 10.7 7.9 10.1 96 0.3 WNW 15 19 8 10 1008.5 1008.6 6.8
27/09:00pm 10.7 8.3 10.2 97 0.3 NW 13 17 7 9 1008.4 1008.5 6.8
27/08:30pm 10.9 9.0 10.4 97 0.3 NNW 11 13 6 7 1008.6 1008.7 6.6
27/08:00pm 10.7 9.1 10.1 96 0.3 N 9 11 5 6 1008.2 1008.3 6.6
27/07:30pm 11.1 9.1 10.3 95 0.4 W 11 15 6 8 1008.2 1008.3 6.4
27/07:00pm 11.6 8.7 11.0 96 0.3 WNW 17 24 9 13 1008.2 1008.3 6.4
27/06:30pm 11.6 8.7 11.0 96 0.3 NW 17 22 9 12 1007.7 1007.8 5.4
27/06:00pm 11.6 8.6 10.8 95 0.4 NNW 17 20 9 11 1007.2 1007.2 5.4
27/05:30pm 11.8 8.5 10.9 94 0.5 NW 19 24 10 13 1007.2 1007.2 5.4
27/05:00pm 12.1 8.8 11.0 93 0.6 NW 19 28 10 15 1006.9 1006.9 5.2
27/04:30pm 12.3 8.9 11.2 93 0.6 NW 20 32 11 17 1007.6 1007.7 4.6
27/04:05pm 11.8 8.4 10.5 92 0.7 NW 19 26 10 14 1007.6 1007.7 4.2
27/04:00pm 11.7 8.3 10.4 92 0.7 NNW 19 28 10 15 1007.5 1007.6 4.2
27/03:46pm 11.9 5.8 9.8 87 1.1 WNW 32 48 17 26 1007.6 1007.7 4.2
27/03:40pm 13.2 8.6 9.8 80 1.7 NW 24 48 13 26 1007.6 1007.7 1.4
27/03:30pm 15.1 11.6 12.1 82 1.6 NNW 22 33 12 18 1006.9 1006.9 1.2
27/03:00pm 16.0 11.6 11.8 76 2.3 NNW 26 37 14 20 1006.9 1006.9 1.2
27/02:30pm 16.6 12.5 11.5 72 2.8 N 24 39 13 21 1006.9 1006.9 1.2
27/02:00pm 16.0 11.8 11.0 72 2.7 NNW 24 33 13 18 1007.5 1007.6 1.2
27/01:30pm 15.5 11.6 10.9 74 2.5 NNW 22 37 12 20 1007.9 1008.0 1.2
27/01:00pm 16.4 12.6 11.3 72 2.8 N 22 39 12 21 1008.2 1008.3 1.2
27/12:30pm 15.4 11.3 11.6 78 2.1 N 24 35 13 19 1009.1 1009.2 1.2
27/12:00pm 13.7 10.2 12.1 90 0.9 N 22 32 12 17 1009.7 1009.8 1.2
27/11:30am 14.8 9.9 9.8 72 2.6 N 26 33 14 18 1010.1 1010.2 0.0
27/11:10am 15.8 10.6 10.1 69 3.0 N 28 48 15 26 1010.6 1010.7 0.0
27/11:00am 15.6 11.2 10.4 71 2.7 N 24 37 13 20 1010.9 1010.9 0.0
27/10:30am 13.9 9.3 9.7 76 2.2 N 24 33 13 18 1011.2 1011.2 0.0
27/10:00am 13.5 8.5 9.4 76 2.1 N 26 43 14 23 1011.7 1011.7 0.0
27/09:30am 13.5 8.4 9.2 75 2.2 N 26 35 14 19 1011.8 1011.8 0.0
27/09:00am 13.0 8.6 9.1 77 2.0 N 22 32 12 17 1012.3 1012.3 0.0
27/08:30am 12.2 7.3 8.3 77 1.9 N 24 33 13 18 1012.4 1012.4 0.0
27/08:00am 12.0 7.0 8.1 77 1.9 N 24 35 13 19 1012.5 1012.5 0.0
27/07:30am 11.4 6.4 8.1 80 1.6 N 24 32 13 17 1012.6 1012.6 0.0
27/07:00am 11.5 6.1 8.2 80 1.6 N 26 33 14 18 1012.7 1012.7 0.0
27/06:30am 11.8 6.9 8.5 80 1.6 N 24 32 13 17 1012.8 1012.8 0.0
27/06:00am 11.9 7.4 8.6 80 1.6 N 22 32 12 17 1013.0 1013.0 0.0
27/05:30am 12.0 7.9 8.7 80 1.6 N 20 30 11 16 1013.0 1013.0 0.0
27/05:00am 11.6 7.2 8.8 83 1.4 N 22 33 12 18 1013.2 1013.2 0.0
27/04:30am 11.4 7.0 8.8 84 1.3 N 22 30 12 16 1013.2 1013.2 0.0
27/04:00am 11.9 8.1 9.1 83 1.4 N 19 32 10 17 1013.6 1013.6 0.0
27/03:30am 11.5 7.5 9.2 86 1.2 N 20 30 11 16 1013.9 1013.9 0.0
27/03:00am 11.6 7.3 9.3 86 1.2 N 22 32 12 17 1014.1 1014.1 0.0
27/02:30am 11.7 7.5 9.6 87 1.1 N 22 32 12 17 1014.3 1014.3 0.0
27/02:00am 11.6 7.0 9.7 88 1.0 N 24 30 13 16 1014.4 1014.4 0.0
27/01:30am 11.4 8.1 9.7 89 0.9 N 17 22 9 12 1014.8 1014.8 0.0
27/01:00am 10.8 7.5 9.6 92 0.6 N 17 24 9 13 1015.0 1015.0 0.0
27/12:30am 10.8 7.9 9.6 92 0.6 N 15 19 8 10 1015.3 1015.3 0.0
27/12:00am 10.6 7.6 9.4 92 0.6 N 15 19 8 10 1015.6 1015.6 0.0
 
Date/Time
CST
Temp
°C
App
Temp
°C
Dew
Point
°C
Rel
Hum
%
Delta-T
°C
Wind Press
QNH
hPa
Press
MSL
hPa
Rain since
9am
mm
Dir  Spd
km/h
Gust
km/h
Spd
kts
Gust
kts
26/11:30pm 10.5 7.1 9.1 91 0.7 N 17 19 9 10 1015.8 1015.8 0.0
26/11:00pm 9.9 7.2 8.8 93 0.5 NNE 13 15 7 8 1016.0 1016.0 0.0
26/10:30pm 10.1 7.0 8.9 92 0.6 NNE 15 15 8 8 1016.2 1016.2 0.0
26/10:00pm 9.9 6.8 8.7 92 0.6 NNE 15 17 8 9 1016.7 1016.7 0.0
26/09:30pm 10.3 7.3 9.1 92 0.6 NNE 15 15 8 8 1016.8 1016.8 0.0
26/09:00pm 10.5 7.1 9.1 91 0.7 NNE 17 19 9 10 1017.0 1017.0 0.0
26/08:30pm 10.5 7.0 8.9 90 0.8 NNE 17 20 9 11 1017.3 1017.3 0.0
26/08:00pm 10.4 7.7 8.8 90 0.8 NNE 13 17 7 9 1017.4 1017.4 0.0
26/07:30pm 10.1 7.6 8.2 88 0.9 NE 11 13 6 7 1017.7 1017.7 0.0
26/07:00pm 10.7 7.9 8.6 87 1.0 NE 13 13 7 7 1017.6 1017.6 0.0
26/06:30pm 10.8 8.7 8.2 84 1.3 NE 9 11 5 6 1017.7 1017.7 0.0
26/06:00pm 10.8 7.8 7.9 82 1.4 NE 13 15 7 8 1017.8 1017.8 0.0
26/05:30pm 11.7 8.8 8.2 79 1.7 NE 13 13 7 7 1018.0 1018.0 0.0
26/05:00pm 12.2 9.0 8.5 78 1.8 NE 15 15 8 8 1018.1 1018.1 0.0
26/04:30pm 12.8 9.6 8.5 75 2.1 NE 15 17 8 9 1018.3 1018.3 0.0
26/04:00pm 13.1 9.5 8.2 72 2.4 NE 17 20 9 11 1018.3 1018.3 0.0
26/03:30pm 13.7 9.9 7.5 66 3.0 NNE 17 20 9 11 1018.4 1018.4 0.0
26/03:00pm 14.1 10.4 7.9 66 3.1 N 17 26 9 14 1018.8 1018.8 0.0
26/02:30pm 14.8 11.2 8.3 65 3.3 N 17 24 9 13 1018.9 1018.9 0.0
26/02:00pm 15.3 11.7 8.3 63 3.5 N 17 26 9 14 1019.2 1019.2 0.0
26/01:30pm 15.2 11.9 8.0 62 3.6 N 15 20 8 11 1019.4 1019.4 0.0
26/01:00pm 15.3 12.2 8.8 65 3.3 N 15 26 8 14 1019.8 1019.9 0.0
26/12:30pm 15.2 11.6 8.4 64 3.4 N 17 22 9 12 1020.3 1020.4 0.0
26/12:00pm 14.6 10.9 7.9 64 3.3 N 17 24 9 13 1020.9 1021.0 0.0
26/11:30am 14.5 11.0 7.3 62 3.5 N 15 20 8 11 1021.3 1021.4 0.0
26/11:00am 14.2 11.7 9.6 74 2.4 N 13 17 7 9 1022.0 1022.1 0.0
26/10:30am 13.1 10.8 10.5 84 1.4 N 13 15 7 8 1022.5 1022.6 0.0
26/10:00am 12.3 9.6 9.1 81 1.6 N 13 17 7 9 1022.5 1022.6 0.0
26/09:30am 10.7 8.5 9.3 91 0.7 NNE 11 15 6 8 1022.6 1022.7 0.0
26/09:00am 9.4 7.2 9.3 99 0.0 NNE 11 13 6 7 1022.6 1022.7 4.6
26/08:30am 7.8 7.3 7.7 99 0.0 CALM 0 0 0 0 1022.8 1022.9 4.6
26/08:00am 6.3 4.1 6.2 99 0.0 NNE 7 9 4 5 1022.5 1022.6 4.6
26/07:47am 5.4 2.6 5.3 99 0.0 NNE 9 11 5 6 1022.5 1022.6 4.6
26/07:30am 5.7 3.0 5.6 99 0.0 NNE 9 11 5 6 1022.3 1022.4 4.6
26/07:08am 5.2 2.4 5.1 99 0.0 NNE 9 11 5 6 1022.2 1022.3 4.6
26/07:00am 4.8 1.9 4.5 98 0.1 NE 9 11 5 6 1022.1 1022.2 4.4
26/06:30am 4.2 2.5 3.9 98 0.1 NE 2 9 1 5 1022.1 1022.2 4.4
26/06:26am 4.6 3.3 4.3 98 0.1 CALM 0 0 0 0 1022.1 1022.2 4.4
26/06:01am 5.6 3.2 5.3 98 0.1 ENE 7 11 4 6 1021.8 1021.9 4.4
26/06:00am 5.5 3.1 5.2 98 0.1 ENE 7 11 4 6 1021.8 1021.9 4.4
26/05:34am 6.3 5.0 6.2 99 0.0 N 2 7 1 4 1021.7 1021.8 4.4
26/05:30am 6.1 4.4 6.0 99 0.0 N 4 7 2 4 1021.7 1021.8 4.4
26/05:00am 6.6 5.8 6.5 99 0.0 CALM 0 0 0 0 1021.6 1021.7 4.4
26/04:30am 6.1 5.1 5.8 98 0.1 CALM 0 0 0 0 1021.3 1021.4 4.4
26/04:00am 6.3 5.4 6.0 98 0.1 CALM 0 0 0 0 1021.2 1021.3 4.4
26/03:38am 6.7 5.9 6.4 98 0.1 CALM 0 0 0 0 1021.2 1021.3 4.2
26/03:30am 7.1 6.4 7.0 99 0.0 CALM 0 0 0 0 1021.2 1021.3 4.2
26/03:00am 7.2 6.5 7.1 99 0.0 CALM 0 6 0 3 1021.2 1021.3 4.2
26/02:40am 6.9 4.4 6.6 98 0.1 NW 9 11 5 6 1021.2 1021.3 4.2
26/02:30am 6.9 5.4 6.8 99 0.0 NW 4 9 2 5 1021.2 1021.3 4.2
26/02:00am 7.1 6.4 6.8 98 0.1 CALM 0 0 0 0 1021.1 1021.2 4.2
26/01:30am 6.3 5.4 6.0 98 0.1 CALM 0 0 0 0 1021.1 1021.2 4.2
26/01:00am 7.2 6.1 6.9 98 0.1 NNW 2 7 1 4 1021.3 1021.4 4.2
26/12:30am 7.4 6.3 7.1 98 0.1 NNW 2 7 1 4 1021.3 1021.4 4.2
26/12:00am 8.1 6.3 7.8 98 0.1 NW 7 9 4 5 1021.3 1021.4 4.2
 
Date/Time
CST
Temp
°C
App
Temp
°C
Dew
Point
°C
Rel
Hum
%
Delta-T
°C
Wind Press
QNH
hPa
Press
MSL
hPa
Rain since
9am
mm
Dir  Spd
km/h
Gust
km/h
Spd
kts
Gust
kts
25/11:30pm 8.3 7.8 8.0 98 0.1 CALM 0 0 0 0 1021.2 1021.3 4.2
25/11:00pm 8.9 7.2 8.5 97 0.2 WNW 7 7 4 4 1021.2 1021.3 4.2
25/10:30pm 9.6 8.1 9.1 97 0.2 NW 7 9 4 5 1021.2 1021.3 4.2
25/10:25pm 9.6 8.1 9.1 97 0.2 NW 7 7 4 4 1021.1 1021.2 4.2
25/10:00pm 9.9 8.4 9.0 94 0.4 W 7 7 4 4 1021.0 1021.1 4.2

Other Formats:

Comma delimited format used in spreadsheet applications
http://www.bom.gov.au/fwo/IDS60801/IDS60801.94821.axf

JavaScript Object Notation format (JSON) in row-major order
http://www.bom.gov.au/fwo/IDS60801/IDS60801.94821.json